Time;durP1;ratioP1;P1;durP2;ratioP2;P2;SDS_P1;SDS_P2;PMS_P1;PMS_P2;Temp;Humidity;BMP_temperature;BMP_pressure;BME280_temperature;BME280_humidity;BME280_pressure;Samples;Min_cycle;Max_cycle;Signal;HPM_P1;HPM_P2
2024/02/06 00:01:13;;;;;;;7.63;3.20;;;8.20;99.90;;;;;;5027434;28;20061;-63
2024/02/06 00:03:39;;;;;;;7.70;3.95;;;8.20;99.90;;;;;;5029255;28;20060;-63
2024/02/06 00:06:11;;;;;;;9.88;3.20;;;8.20;99.90;;;;;;5030113;28;20053;-62
2024/02/06 00:08:43;;;;;;;10.85;3.47;;;8.20;99.90;;;;;;5028138;28;20045;-63
2024/02/06 00:11:15;;;;;;;8.32;3.35;;;8.30;99.90;;;;;;5030455;28;20091;-62
2024/02/06 00:13:47;;;;;;;7.60;3.13;;;8.30;99.90;;;;;;5027310;28;20045;-62
2024/02/06 00:16:19;;;;;;;10.48;3.70;;;8.30;99.90;;;;;;5024200;28;20049;-63
2024/02/06 00:18:51;;;;;;;9.68;3.83;;;8.40;99.90;;;;;;5025833;28;20046;-63
2024/02/06 00:21:23;;;;;;;7.70;3.78;;;8.30;99.90;;;;;;5029078;28;20038;-63
2024/02/06 00:23:55;;;;;;;11.27;3.40;;;8.30;99.90;;;;;;5008748;28;20410;-63
2024/02/06 00:26:27;;;;;;;9.68;3.25;;;8.30;99.90;;;;;;5025863;28;20103;-63
2024/02/06 00:28:59;;;;;;;9.18;3.13;;;8.30;99.90;;;;;;5010399;28;20045;-63
2024/02/06 00:31:31;;;;;;;10.68;4.10;;;8.30;99.90;;;;;;5025711;28;20060;-63
2024/02/06 00:34:03;;;;;;;9.50;3.25;;;8.30;99.90;;;;;;5011089;28;20119;-63
2024/02/06 00:36:35;;;;;;;11.60;4.07;;;8.40;99.90;;;;;;5009202;28;20041;-63
2024/02/06 00:39:07;;;;;;;9.95;2.83;;;8.50;99.90;;;;;;5006531;28;20038;-63
2024/02/06 00:41:39;;;;;;;7.00;3.25;;;8.50;99.90;;;;;;5027356;28;20049;-63
2024/02/06 00:44:11;;;;;;;11.48;3.67;;;8.50;99.90;;;;;;5028519;28;20090;-63
2024/02/06 00:46:43;;;;;;;9.57;3.63;;;8.50;99.90;;;;;;5029264;28;20547;-62
2024/02/06 00:49:15;;;;;;;13.48;2.78;;;8.50;99.90;;;;;;5026046;28;20048;-63
2024/02/06 00:51:47;;;;;;;6.82;2.38;;;8.50;99.90;;;;;;4995329;28;20056;-63
2024/02/06 00:54:18;;;;;;;8.68;2.92;;;8.50;99.90;;;;;;5016610;28;20081;-62
2024/02/06 00:56:50;;;;;;;11.60;3.65;;;8.60;99.90;;;;;;5009122;28;20041;-62
2024/02/06 00:59:22;;;;;;;9.73;3.88;;;8.50;99.90;;;;;;5001569;28;20047;-63
2024/02/06 01:01:54;;;;;;;9.45;3.58;;;8.60;99.90;;;;;;5027561;28;20053;-63
2024/02/06 01:04:26;;;;;;;9.63;3.63;;;8.60;99.90;;;;;;5027189;28;20069;-63
2024/02/06 01:06:58;;;;;;;6.20;2.90;;;8.60;99.90;;;;;;5027805;28;20452;-63
2024/02/06 01:09:29;;;;;;;8.75;3.33;;;8.60;99.90;;;;;;5027595;28;20042;-63
2024/02/06 01:11:56;;;;;;;11.32;3.70;;;8.50;99.90;;;;;;5029052;28;20056;-63
2024/02/06 01:14:28;;;;;;;6.60;3.17;;;8.50;99.90;;;;;;5026878;28;20064;-63
2024/02/06 01:17:00;;;;;;;7.82;3.92;;;8.50;99.90;;;;;;5029197;28;20069;-63
2024/02/06 01:19:32;;;;;;;12.32;3.28;;;8.40;99.90;;;;;;5029548;28;20420;-63
2024/02/06 01:22:04;;;;;;;11.43;3.33;;;8.40;99.90;;;;;;5025805;28;20042;-63
2024/02/06 01:24:36;;;;;;;11.57;3.20;;;8.40;99.90;;;;;;5001961;28;20129;-63
2024/02/06 01:27:08;;;;;;;12.43;3.03;;;8.40;99.90;;;;;;5024084;28;20039;-63
2024/02/06 01:29:40;;;;;;;9.93;3.05;;;8.40;99.90;;;;;;5031286;28;20400;-63
2024/02/06 01:32:12;;;;;;;10.32;3.45;;;8.40;99.90;;;;;;5008576;28;20084;-63
2024/02/06 01:34:44;;;;;;;6.90;3.20;;;8.40;99.90;;;;;;5031859;28;20037;-63
2024/02/06 01:37:11;;;;;;;7.88;3.05;;;8.30;99.90;;;;;;5029332;28;20088;-63
2024/02/06 01:39:42;;;;;;;5.18;2.78;;;8.30;99.90;;;;;;5030573;28;20052;-63
2024/02/06 01:42:14;;;;;;;7.28;2.80;;;8.30;99.90;;;;;;5013878;28;20052;-63
2024/02/06 01:44:46;;;;;;;6.57;3.30;;;8.30;99.90;;;;;;5030326;28;20037;-63
2024/02/06 01:47:18;;;;;;;8.63;3.17;;;8.30;99.90;;;;;;5015395;28;20148;-63
2024/02/06 01:49:50;;;;;;;5.93;2.88;;;8.40;99.90;;;;;;5011119;28;20052;-63
2024/02/06 01:52:22;;;;;;;8.57;2.85;;;8.50;99.90;;;;;;5029791;28;20121;-63
2024/02/06 01:54:54;;;;;;;7.90;2.60;;;8.60;99.90;;;;;;5033043;28;20091;-63
2024/02/06 01:57:22;;;;;;;6.72;2.83;;;8.50;99.90;;;;;;5030209;28;20561;-63
2024/02/06 01:59:54;;;;;;;9.00;3.30;;;8.50;99.90;;;;;;5007132;28;20504;-63
2024/02/06 02:02:26;;;;;;;12.02;3.85;;;8.60;99.90;;;;;;5021780;28;20042;-63
2024/02/06 02:04:58;;;;;;;8.02;2.78;;;8.60;99.90;;;;;;4996471;28;20069;-62
2024/02/06 02:07:30;;;;;;;5.93;2.45;;;8.60;99.90;;;;;;5026992;28;20092;-63
2024/02/06 02:10:06;;;;;;;10.13;4.10;;;8.70;99.90;;;;;;5030896;28;20045;-63
2024/02/06 02:12:38;;;;;;;6.50;2.45;;;8.70;99.90;;;;;;5013251;28;20522;-63
2024/02/06 02:15:12;;;;;;;12.00;2.93;;;8.80;99.90;;;;;;5026829;28;20049;-63
2024/02/06 02:17:51;;;;;;;7.07;2.20;;;8.80;99.90;;;;;;5029858;28;20060;-63
2024/02/06 02:20:22;;;;;;;5.30;2.90;;;8.80;99.90;;;;;;5027781;28;20056;-63
2024/02/06 02:22:54;;;;;;;6.97;2.78;;;8.70;99.90;;;;;;5030311;28;20041;-63
2024/02/06 02:25:23;;;;;;;9.05;2.97;;;8.70;99.90;;;;;;5030850;28;20125;-62
2024/02/06 02:27:55;;;;;;;9.32;2.70;;;8.70;99.90;;;;;;5031574;28;20037;-63
2024/02/06 02:30:28;;;;;;;9.80;3.22;;;8.70;99.90;;;;;;5030930;28;20073;-63
2024/02/06 02:32:59;;;;;;;6.50;2.53;;;8.70;99.90;;;;;;5030547;28;20041;-63
2024/02/06 02:35:32;;;;;;;6.72;3.28;;;8.70;99.90;;;;;;5030963;28;20045;-64
2024/02/06 02:38:04;;;;;;;8.80;2.90;;;8.70;99.90;;;;;;5027225;28;20069;-62
2024/02/06 02:40:36;;;;;;;9.07;3.13;;;8.60;99.90;;;;;;5029623;28;20561;-63
2024/02/06 02:43:08;;;;;;;7.15;3.40;;;8.60;99.90;;;;;;5028395;28;20042;-63
2024/02/06 02:45:40;;;;;;;10.48;3.35;;;8.60;99.90;;;;;;5011086;28;20134;-63
2024/02/06 02:48:12;;;;;;;6.88;3.10;;;8.60;99.90;;;;;;5029934;28;20049;-63
2024/02/06 02:50:44;;;;;;;6.32;2.67;;;8.60;99.90;;;;;;5028814;28;20041;-63
2024/02/06 02:53:16;;;;;;;6.80;3.05;;;8.60;99.90;;;;;;5009120;28;20046;-63
2024/02/06 02:55:49;;;;;;;6.13;2.88;;;8.60;99.90;;;;;;5028535;28;20056;-63
2024/02/06 02:58:20;;;;;;;7.07;3.20;;;8.60;99.90;;;;;;5030048;28;20052;-63
2024/02/06 03:00:53;;;;;;;11.05;3.25;;;8.50;99.90;;;;;;5028850;28;20046;-63
2024/02/06 03:03:25;;;;;;;8.40;2.95;;;8.50;99.90;;;;;;5027400;28;20056;-62
2024/02/06 03:05:57;;;;;;;8.60;2.63;;;8.50;99.90;;;;;;5032024;28;20052;-63
2024/02/06 03:08:29;;;;;;;6.88;3.10;;;8.40;99.90;;;;;;5023786;28;20026;-63
2024/02/06 03:11:01;;;;;;;9.63;3.70;;;8.40;99.90;;;;;;5029977;28;20417;-63
2024/02/06 03:13:27;;;;;;;9.73;3.03;;;8.50;99.90;;;;;;5011456;28;20037;-63
2024/02/06 03:15:55;;;;;;;8.75;3.03;;;8.40;99.90;;;;;;5014141;28;20052;-63
2024/02/06 03:18:27;;;;;;;5.38;2.58;;;8.40;99.90;;;;;;5030187;28;20510;-62
2024/02/06 03:20:58;;;;;;;8.35;2.60;;;8.50;99.90;;;;;;5013956;28;20041;-63
2024/02/06 03:23:30;;;;;;;6.90;2.65;;;8.40;99.90;;;;;;5028391;28;20038;-63
2024/02/06 03:26:02;;;;;;;9.82;3.55;;;8.30;99.90;;;;;;5026465;28;20044;-63
2024/02/06 03:28:34;;;;;;;6.72;3.83;;;8.40;99.90;;;;;;5002348;28;20425;-63
2024/02/06 03:31:06;;;;;;;7.85;2.53;;;8.40;99.90;;;;;;5022576;28;20049;-63
2024/02/06 03:33:38;;;;;;;11.77;3.60;;;8.30;99.90;;;;;;5009406;28;20111;-63
2024/02/06 03:36:10;;;;;;;7.22;2.83;;;8.30;99.90;;;;;;5029620;28;20077;-63
2024/02/06 03:38:41;;;;;;;7.30;3.35;;;8.20;99.90;;;;;;4996285;28;20045;-62
2024/02/06 03:41:13;;;;;;;10.52;4.05;;;8.10;99.90;;;;;;5026224;28;20049;-63
2024/02/06 03:43:45;;;;;;;8.80;2.83;;;8.10;99.90;;;;;;5028439;28;20148;-63
2024/02/06 03:46:17;;;;;;;6.40;3.63;;;8.00;99.90;;;;;;5029442;28;20049;-63
2024/02/06 03:48:43;;;;;;;5.32;2.47;;;8.00;99.90;;;;;;5026212;28;20049;-63
2024/02/06 03:51:15;;;;;;;9.93;2.97;;;8.10;99.90;;;;;;5028092;28;20045;-63
2024/02/06 03:53:47;;;;;;;6.40;2.72;;;8.10;99.90;;;;;;5026426;28;20069;-63
2024/02/06 03:56:19;;;;;;;8.88;3.25;;;8.10;99.90;;;;;;5000757;28;20104;-63
2024/02/06 03:58:51;;;;;;;8.27;2.72;;;8.00;99.90;;;;;;5026991;28;20042;-63
2024/02/06 04:01:22;;;;;;;7.40;3.30;;;8.00;99.90;;;;;;5025979;28;20124;-63
2024/02/06 04:03:54;;;;;;;5.28;3.00;;;8.00;99.90;;;;;;5002069;28;20049;-63
2024/02/06 04:06:26;;;;;;;6.47;2.63;;;7.90;99.90;;;;;;5013575;28;20164;-63
2024/02/06 04:08:58;;;;;;;6.15;2.72;;;8.00;99.90;;;;;;5023185;28;20075;-63
2024/02/06 04:11:24;;;;;;;9.40;3.03;;;7.90;99.90;;;;;;5011416;28;20136;-63
2024/02/06 04:13:56;;;;;;;6.95;2.80;;;7.90;99.90;;;;;;5029492;28;20099;-63
2024/02/06 04:16:28;;;;;;;7.90;3.55;;;7.90;99.90;;;;;;5028921;28;20104;-63
2024/02/06 04:19:00;;;;;;;11.57;2.72;;;7.90;99.90;;;;;;5025866;28;20107;-63
2024/02/06 04:21:31;;;;;;;7.45;2.60;;;7.80;99.90;;;;;;5011135;28;20034;-63
2024/02/06 04:24:05;;;;;;;7.55;2.95;;;7.80;99.90;;;;;;5010622;28;20509;-63
2024/02/06 04:26:37;;;;;;;9.15;3.40;;;7.80;99.90;;;;;;5024474;28;20049;-63
2024/02/06 04:29:09;;;;;;;7.63;2.85;;;7.70;99.90;;;;;;5012793;28;20044;-63
2024/02/06 04:31:41;;;;;;;7.50;2.97;;;7.70;99.90;;;;;;5022956;28;20057;-63
2024/02/06 04:34:13;;;;;;;8.38;3.70;;;7.70;99.90;;;;;;5027586;28;20049;-63
2024/02/06 04:36:40;;;;;;;19.80;3.90;;;7.60;99.90;;;;;;5027410;28;20498;-63
2024/02/06 04:39:12;;;;;;;10.07;5.70;;;7.50;99.90;;;;;;5026646;28;20052;-63
2024/02/06 04:41:43;;;;;;;24.60;15.32;;;7.30;99.90;;;;;;5025999;28;20049;-63
2024/02/06 04:44:10;;;;;;;12.82;7.35;;;7.00;99.90;;;;;;5027885;28;20041;-63
2024/02/06 04:46:42;;;;;;;13.20;5.43;;;6.80;99.90;;;;;;5029077;28;20095;-63
2024/02/06 04:49:14;;;;;;;21.15;9.27;;;6.60;99.90;;;;;;5013546;28;20037;-63
2024/02/06 04:51:41;;;;;;;9.77;6.63;;;6.40;99.90;;;;;;5009153;28;20052;-63
2024/02/06 04:54:13;;;;;;;19.30;8.38;;;6.20;99.90;;;;;;5029520;28;20045;-63
2024/02/06 04:56:45;;;;;;;8.20;5.32;;;6.10;99.90;;;;;;5024908;28;20056;-63
2024/02/06 04:59:16;;;;;;;13.30;6.50;;;5.90;99.90;;;;;;5028481;28;20049;-63
2024/02/06 05:01:48;;;;;;;20.85;8.80;;;5.90;99.90;;;;;;5008542;28;20382;-63
2024/02/06 05:04:20;;;;;;;35.92;16.13;;;5.80;99.90;;;;;;5026786;28;20100;-63
2024/02/06 05:06:49;;;;;;;39.50;17.42;;;5.70;99.90;;;;;;5029264;28;20680;-64
2024/02/06 05:09:21;;;;;;;22.10;11.07;;;5.70;99.90;;;;;;5000134;28;20395;-63
2024/02/06 05:11:53;;;;;;;24.17;10.95;;;5.60;99.90;;;;;;5009259;28;20038;-63
2024/02/06 05:14:25;;;;;;;30.88;13.75;;;5.50;99.90;;;;;;5009680;28;20053;-63
2024/02/06 05:16:57;;;;;;;24.38;11.52;;;5.50;99.90;;;;;;5023001;28;20042;-64
2024/02/06 05:19:29;;;;;;;20.70;9.70;;;5.40;99.90;;;;;;5005729;28;20050;-62
2024/02/06 05:21:59;;;;;;;12.40;6.57;;;5.30;99.90;;;;;;5027180;28;20196;-63
2024/02/06 05:24:31;;;;;;;16.75;8.73;;;5.30;99.90;;;;;;5006623;28;20046;-63
2024/02/06 05:27:03;;;;;;;18.17;9.88;;;5.20;99.90;;;;;;5014615;28;20033;-63
2024/02/06 05:29:35;;;;;;;23.10;10.55;;;5.10;99.90;;;;;;5026090;28;20042;-63
2024/02/06 05:32:02;;;;;;;15.88;9.07;;;5.10;99.90;;;;;;5012613;28;20124;-63
2024/02/06 05:34:29;;;;;;;18.27;7.95;;;5.00;99.90;;;;;;5027228;28;20104;-63
2024/02/06 05:36:56;;;;;;;11.57;6.47;;;4.90;99.90;;;;;;5029640;28;20049;-63
2024/02/06 05:39:27;;;;;;;14.52;6.70;;;4.80;99.90;;;;;;5028046;28;20065;-63
2024/02/06 05:41:59;;;;;;;11.38;6.00;;;4.80;99.90;;;;;;5025118;28;20065;-63
2024/02/06 05:44:31;;;;;;;10.18;5.45;;;4.60;99.90;;;;;;5024195;28;20030;-63
2024/02/06 05:47:03;;;;;;;14.02;6.32;;;4.40;99.90;;;;;;5029545;28;20052;-63
2024/02/06 05:49:35;;;;;;;12.27;6.38;;;4.40;99.90;;;;;;5022154;28;20128;-63
2024/02/06 05:52:07;;;;;;;18.90;6.80;;;4.20;99.90;;;;;;5024068;28;20041;-63
2024/02/06 05:54:39;;;;;;;14.25;7.43;;;4.30;99.90;;;;;;5012353;28;20125;-63
2024/02/06 05:57:11;;;;;;;13.57;8.02;;;4.10;99.90;;;;;;5026300;28;20398;-63
2024/02/06 05:59:42;;;;;;;10.40;6.50;;;4.10;99.90;;;;;;5009838;28;20048;-63
2024/02/06 06:02:14;;;;;;;15.20;5.60;;;4.00;99.90;;;;;;5027580;28;20040;-63
2024/02/06 06:04:46;;;;;;;12.90;6.43;;;3.90;99.90;;;;;;5028380;28;20030;-63
2024/02/06 06:07:18;;;;;;;18.15;8.93;;;3.80;99.90;;;;;;5020126;28;20045;-62
2024/02/06 06:09:50;;;;;;;33.10;9.43;;;3.80;99.90;;;;;;5021375;28;20057;-62
2024/02/06 06:12:21;;;;;;;18.25;9.90;;;3.80;99.90;;;;;;5019112;28;20049;-62
2024/02/06 06:14:54;;;;;;;18.35;9.32;;;3.80;99.90;;;;;;5005299;28;20048;-62
2024/02/06 06:17:21;;;;;;;14.63;7.88;;;3.80;99.90;;;;;;5006611;28;20120;-62
2024/02/06 06:19:53;;;;;;;16.85;9.13;;;3.60;99.90;;;;;;5016700;28;20046;-63
2024/02/06 06:22:25;;;;;;;14.32;8.13;;;3.60;99.90;;;;;;5023782;28;20056;-62
2024/02/06 06:24:58;;;;;;;14.68;7.80;;;3.60;99.90;;;;;;5024225;28;20038;-62
2024/02/06 06:27:30;;;;;;;12.40;7.80;;;3.60;99.90;;;;;;5005839;28;20049;-62
2024/02/06 06:29:57;;;;;;;15.80;7.90;;;3.60;99.90;;;;;;5018371;28;20124;-62
2024/02/06 06:32:29;;;;;;;17.35;9.38;;;3.60;99.90;;;;;;5018668;28;20754;-62
2024/02/06 06:35:04;;;;;;;13.18;8.32;;;3.50;99.90;;;;;;5024027;28;20099;-62
2024/02/06 06:37:36;;;;;;;11.98;6.95;;;3.50;99.90;;;;;;5024998;28;20092;-62
2024/02/06 06:40:08;;;;;;;14.43;8.57;;;3.50;99.90;;;;;;5023410;28;20065;-63
2024/02/06 06:42:40;;;;;;;21.23;9.38;;;3.40;99.90;;;;;;5023992;28;20342;-62
2024/02/06 06:45:12;;;;;;;20.38;7.90;;;3.40;99.90;;;;;;5022355;28;20041;-62
2024/02/06 06:47:44;;;;;;;13.20;7.78;;;3.30;99.90;;;;;;5024660;28;20037;-62
2024/02/06 06:50:11;;;;;;;15.43;8.82;;;3.40;99.90;;;;;;5024779;28;20037;-62
2024/02/06 06:52:42;;;;;;;15.77;8.75;;;3.40;99.90;;;;;;5022270;28;20038;-62
2024/02/06 06:55:14;;;;;;;15.57;8.27;;;3.30;99.90;;;;;;5021716;28;20655;-62
2024/02/06 06:57:46;;;;;;;23.63;12.55;;;3.30;99.90;;;;;;5021748;28;20134;-62
2024/02/06 07:00:19;;;;;;;23.23;11.00;;;3.30;99.90;;;;;;5015268;28;20124;-62
2024/02/06 07:02:52;;;;;;;12.80;6.88;;;3.30;99.90;;;;;;5018150;28;20072;-62
2024/02/06 07:05:24;;;;;;;16.58;8.32;;;3.20;99.90;;;;;;5022189;28;20148;-62
2024/02/06 07:07:56;;;;;;;12.32;7.85;;;3.20;99.90;;;;;;5024044;28;20073;-62
2024/02/06 07:10:28;;;;;;;14.00;8.98;;;3.20;99.90;;;;;;5024158;28;20029;-62
2024/02/06 07:12:55;;;;;;;21.90;11.93;;;3.10;99.90;;;;;;5022860;28;20137;-62
2024/02/06 07:15:27;;;;;;;27.95;19.58;;;3.00;99.90;;;;;;5020792;28;20042;-62
2024/02/06 07:17:54;;;;;;;22.10;15.40;;;3.00;99.90;;;;;;5006920;28;20112;-62
2024/02/06 07:20:26;;;;;;;17.75;10.70;;;2.90;99.90;;;;;;5026753;28;20041;-62
2024/02/06 07:22:58;;;;;;;15.52;10.77;;;2.90;99.90;;;;;;5023300;28;20492;-62
2024/02/06 07:25:30;;;;;;;17.65;12.50;;;2.90;99.90;;;;;;5019750;28;20083;-62
2024/02/06 07:28:04;;;;;;;19.35;11.20;;;3.00;99.90;;;;;;5024770;28;20539;-62
2024/02/06 07:30:36;;;;;;;20.25;10.07;;;3.00;99.90;;;;;;5000529;28;20056;-62
2024/02/06 07:33:08;;;;;;;19.27;10.50;;;3.00;99.90;;;;;;5010286;28;20045;-62
2024/02/06 07:35:40;;;;;;;22.50;11.48;;;3.10;99.90;;;;;;5012253;28;20164;-63
2024/02/06 07:38:17;;;;;;;20.20;12.13;;;3.10;99.90;;;;;;5029180;28;20440;-62
2024/02/06 07:40:48;;;;;;;17.42;9.82;;;3.00;99.90;;;;;;5027856;28;20034;-62
2024/02/06 07:43:20;;;;;;;14.02;8.80;;;3.00;99.90;;;;;;5028706;28;20142;-62
2024/02/06 07:45:52;;;;;;;15.55;10.80;;;3.00;99.90;;;;;;5011417;28;20037;-62
2024/02/06 07:48:24;;;;;;;16.70;9.95;;;3.10;99.90;;;;;;5023493;28;20034;-63
2024/02/06 07:50:56;;;;;;;17.73;10.15;;;3.10;99.90;;;;;;5026050;28;20068;-63
2024/02/06 07:53:28;;;;;;;14.80;8.45;;;3.10;99.90;;;;;;5030722;28;20044;-62
2024/02/06 07:56:04;;;;;;;10.77;7.88;;;3.20;99.90;;;;;;5025073;28;20045;-62
2024/02/06 07:58:35;;;;;;;16.08;9.10;;;3.20;99.90;;;;;;5029502;28;20049;-62
2024/02/06 08:01:07;;;;;;;16.23;9.35;;;3.30;99.90;;;;;;5028061;28;20041;-62
2024/02/06 08:03:39;;;;;;;13.50;8.05;;;3.30;99.90;;;;;;5009179;28;20038;-62
2024/02/06 08:06:11;;;;;;;14.02;7.85;;;3.30;99.90;;;;;;5024585;28;20529;-62
2024/02/06 08:08:43;;;;;;;13.27;6.78;;;3.40;99.90;;;;;;5027490;28;20698;-63
2024/02/06 08:11:15;;;;;;;13.32;7.50;;;3.50;99.90;;;;;;5029048;28;20045;-63
2024/02/06 08:13:46;;;;;;;12.77;6.90;;;3.50;99.90;;;;;;5029084;28;20517;-62
2024/02/06 08:16:18;;;;;;;12.27;8.15;;;3.60;99.90;;;;;;5028304;28;20446;-63
2024/02/06 08:18:50;;;;;;;18.08;6.97;;;3.60;99.90;;;;;;5024012;28;20045;-62
2024/02/06 08:21:22;;;;;;;15.07;7.85;;;3.70;99.90;;;;;;5004535;28;20122;-63
2024/02/06 08:23:50;;;;;;;14.60;6.82;;;3.80;99.90;;;;;;4993911;28;20049;-62
2024/02/06 08:26:22;;;;;;;14.52;6.35;;;3.90;99.90;;;;;;5005482;28;20056;-63
2024/02/06 08:28:54;;;;;;;15.80;6.40;;;4.10;99.90;;;;;;5027140;28;20139;-63
2024/02/06 08:31:26;;;;;;;10.57;6.72;;;4.10;99.90;;;;;;5026568;28;20041;-63
2024/02/06 08:33:57;;;;;;;14.00;6.93;;;4.20;99.90;;;;;;5027228;28;20045;-63
2024/02/06 08:36:31;;;;;;;12.40;5.25;;;4.30;99.90;;;;;;5010474;28;20142;-63
2024/02/06 08:39:06;;;;;;;8.27;4.85;;;4.40;99.90;;;;;;5001307;28;20049;-62
2024/02/06 08:41:38;;;;;;;11.90;5.75;;;4.50;99.90;;;;;;5008764;28;20050;-62
2024/02/06 08:44:10;;;;;;;12.23;5.97;;;4.60;99.90;;;;;;4994700;28;20540;-62
2024/02/06 08:46:37;;;;;;;12.40;5.53;;;4.70;99.90;;;;;;5023327;28;20038;-63
2024/02/06 08:49:09;;;;;;;10.68;4.82;;;4.70;99.90;;;;;;5021142;28;20135;-63
2024/02/06 08:51:41;;;;;;;15.88;5.60;;;4.80;99.90;;;;;;5007870;28;20077;-63
2024/02/06 08:54:13;;;;;;;10.77;5.20;;;4.90;99.90;;;;;;5024428;28;20049;-62
2024/02/06 08:56:45;;;;;;;10.88;4.55;;;5.00;99.90;;;;;;5022797;28;20053;-62
2024/02/06 08:59:17;;;;;;;12.23;5.13;;;5.00;99.90;;;;;;5026376;28;20049;-63
2024/02/06 09:01:44;;;;;;;13.95;5.78;;;5.10;99.90;;;;;;5025141;28;20453;-63
2024/02/06 09:04:16;;;;;;;8.75;4.55;;;5.20;99.90;;;;;;5026467;28;20038;-62
2024/02/06 09:06:48;;;;;;;11.70;5.20;;;5.20;99.90;;;;;;5025614;28;20745;-63
2024/02/06 09:09:20;;;;;;;9.05;4.65;;;5.30;99.90;;;;;;5022234;28;20421;-62
2024/02/06 09:11:52;;;;;;;11.55;5.38;;;5.30;99.90;;;;;;5023099;28;20045;-62
2024/02/06 09:14:24;;;;;;;8.60;5.30;;;5.30;99.90;;;;;;5023751;28;20049;-62
2024/02/06 09:16:56;;;;;;;8.20;4.95;;;5.30;99.90;;;;;;5008198;28;20099;-62
2024/02/06 09:19:28;;;;;;;8.70;4.45;;;5.40;99.90;;;;;;5025314;28;20513;-63
2024/02/06 09:22:01;;;;;;;8.70;5.18;;;5.40;99.90;;;;;;5028911;28;20042;-62
2024/02/06 09:24:33;;;;;;;10.95;5.20;;;5.50;99.90;;;;;;5004932;28;20549;-62
2024/02/06 09:27:04;;;;;;;14.55;4.40;;;5.50;99.90;;;;;;5004832;28;20045;-62
2024/02/06 09:29:36;;;;;;;12.23;4.53;;;5.50;99.90;;;;;;5002080;28;20072;-62
2024/02/06 09:32:03;;;;;;;13.63;5.18;;;5.60;99.90;;;;;;5026315;28;20069;-62
2024/02/06 09:34:35;;;;;;;9.93;4.25;;;5.60;99.90;;;;;;5016981;28;20057;-62
2024/02/06 09:37:07;;;;;;;15.40;4.82;;;5.60;99.90;;;;;;5006229;28;20041;-62
2024/02/06 09:39:39;;;;;;;8.30;4.13;;;5.70;99.90;;;;;;5028304;28;20103;-62
2024/02/06 09:42:11;;;;;;;10.55;5.82;;;5.70;99.90;;;;;;5010720;28;20033;-63
2024/02/06 09:44:45;;;;;;;12.15;5.47;;;5.70;99.90;;;;;;5027958;28;20095;-62
2024/02/06 09:47:12;;;;;;;12.48;5.05;;;5.70;99.90;;;;;;5026591;28;20034;-62
2024/02/06 09:49:44;;;;;;;8.30;4.40;;;5.70;99.90;;;;;;5027660;28;20048;-62
2024/02/06 09:52:19;;;;;;;9.43;4.30;;;5.70;99.90;;;;;;5029915;28;20052;-62
2024/02/06 09:54:52;;;;;;;11.00;4.43;;;5.80;99.90;;;;;;5026178;28;20138;-62
2024/02/06 09:57:24;;;;;;;13.63;4.75;;;5.80;99.90;;;;;;5027636;28;20041;-62
2024/02/06 09:59:57;;;;;;;10.98;4.25;;;5.80;99.90;;;;;;5026700;28;21206;-63
2024/02/06 10:02:25;;;;;;;17.45;4.95;;;5.80;99.90;;;;;;5028082;28;20563;-62
2024/02/06 10:04:58;;;;;;;7.20;4.45;;;5.90;99.90;;;;;;5028161;28;20042;-62
2024/02/06 10:07:31;;;;;;;10.68;5.55;;;5.90;99.90;;;;;;5023958;28;20127;-62
2024/02/06 10:10:04;;;;;;;10.52;6.15;;;5.90;99.90;;;;;;5029828;28;20091;-63
2024/02/06 10:12:37;;;;;;;8.27;3.87;;;6.10;99.90;;;;;;5029095;28;20045;-62
2024/02/06 10:15:15;;;;;;;10.80;4.30;;;6.10;99.90;;;;;;5011124;28;20280;-62
2024/02/06 10:17:42;;;;;;;10.13;4.90;;;6.10;99.90;;;;;;5029305;28;20509;-62
2024/02/06 10:20:10;;;;;;;8.98;4.93;;;6.10;99.90;;;;;;5026197;28;20044;-62
2024/02/06 10:22:42;;;;;;;10.68;4.68;;;6.20;99.90;;;;;;5014157;28;20052;-63
2024/02/06 10:25:15;;;;;;;12.77;5.45;;;6.20;99.90;;;;;;5013722;28;20112;-62
2024/02/06 10:27:56;;;;;;;10.70;5.75;;;6.20;99.90;;;;;;5029319;28;20041;-62
2024/02/06 10:30:28;;;;;;;10.73;6.05;;;6.30;99.90;;;;;;5030712;28;20583;-63
2024/02/06 10:33:13;;;;;;;10.43;4.85;;;6.30;99.90;;;;;;5012394;28;20049;-62
2024/02/06 10:35:45;;;;;;;11.48;6.30;;;6.40;99.90;;;;;;5031489;28;20041;-62
2024/02/06 10:38:17;;;;;;;14.15;4.97;;;6.40;99.90;;;;;;4998122;28;20402;-63
2024/02/06 10:40:51;;;;;;;12.05;5.75;;;6.50;99.90;;;;;;5028478;28;20129;-62
2024/02/06 10:43:30;;;;;;;9.82;4.78;;;6.60;99.90;;;;;;5028780;28;20045;-62
2024/02/06 10:46:04;;;;;;;9.38;4.32;;;6.60;99.90;;;;;;5027931;28;20044;-62
2024/02/06 10:48:37;;;;;;;11.52;4.35;;;6.60;99.90;;;;;;5029565;28;20700;-62
2024/02/06 10:51:10;;;;;;;12.52;5.38;;;6.70;99.90;;;;;;5030321;28;20061;-63
2024/02/06 10:53:42;;;;;;;8.43;4.95;;;6.60;99.90;;;;;;5024988;28;20124;-62
2024/02/06 10:56:15;;;;;;;10.52;5.32;;;6.70;99.90;;;;;;5026171;28;20048;-62
2024/02/06 10:58:45;;;;;;;12.02;4.85;;;6.70;99.90;;;;;;5030091;28;20059;-62
2024/02/06 11:01:17;;;;;;;10.98;5.05;;;6.70;99.90;;;;;;5024138;28;20518;-62
2024/02/06 11:03:59;;;;;;;10.70;5.53;;;6.60;99.90;;;;;;5005029;28;20038;-62
2024/02/06 11:06:52;;;;;;;9.93;5.53;;;6.60;99.90;;;;;;5010295;28;20069;-63
2024/02/06 11:09:24;;;;;;;10.38;5.65;;;6.70;99.90;;;;;;5028645;28;20068;-62
2024/02/06 11:11:58;;;;;;;10.60;5.70;;;6.70;99.90;;;;;;5029369;28;20041;-62
2024/02/06 11:14:31;;;;;;;11.85;5.15;;;6.80;99.90;;;;;;5010028;28;20056;-62
2024/02/06 11:17:03;;;;;;;10.23;5.70;;;6.80;99.90;;;;;;5027975;28;20061;-62
2024/02/06 11:19:48;;;;;;;11.65;5.90;;;6.80;99.90;;;;;;5011324;28;20037;-62
2024/02/06 11:22:28;;;;;;;10.98;5.85;;;6.80;99.90;;;;;;5026492;28;20061;-62
2024/02/06 11:25:03;;;;;;;14.57;5.70;;;6.90;99.90;;;;;;4989612;28;20049;-62
2024/02/06 11:27:36;;;;;;;8.93;5.55;;;6.90;99.90;;;;;;5007387;28;20033;-62
2024/02/06 11:30:09;;;;;;;;;;;7.00;99.90;;;;;;5024372;28;20042;-62
2024/02/06 11:32:41;;;;;;;13.25;5.40;;;7.00;99.90;;;;;;5026936;28;19952;-62
2024/02/06 11:35:13;;;;;;;7.80;5.45;;;7.20;99.90;;;;;;5028713;28;20513;-62
2024/02/06 11:37:53;;;;;;;8.00;4.65;;;7.20;99.90;;;;;;5025201;28;20056;-62
2024/02/06 11:40:26;;;;;;;8.07;4.50;;;7.10;99.90;;;;;;5011011;28;20048;-62
2024/02/06 11:43:03;;;;;;;16.90;5.63;;;7.20;99.90;;;;;;5028363;28;20045;-62
2024/02/06 11:45:35;;;;;;;10.20;5.60;;;7.30;99.90;;;;;;5025987;28;20040;-62
2024/02/06 11:48:08;;;;;;;7.35;4.15;;;7.30;99.90;;;;;;5027883;28;20123;-62
2024/02/06 11:50:45;;;;;;;9.13;5.45;;;7.40;99.90;;;;;;5012046;28;20091;-63
2024/02/06 11:53:14;;;;;;;12.52;4.97;;;7.40;99.90;;;;;;5008235;28;20382;-63
2024/02/06 11:55:46;;;;;;;12.30;5.43;;;7.30;99.90;;;;;;5011197;28;20055;-63
2024/02/06 11:58:18;;;;;;;9.18;4.97;;;7.40;99.90;;;;;;5023856;28;20057;-63
2024/02/06 12:00:45;;;;;;;8.98;4.95;;;7.50;99.90;;;;;;5028976;28;20055;-62
2024/02/06 12:03:16;;;;;;;9.95;5.13;;;7.50;99.90;;;;;;5005666;28;20044;-63
2024/02/06 12:05:49;;;;;;;14.88;5.15;;;7.60;99.90;;;;;;5026560;28;20521;-62
2024/02/06 12:08:21;;;;;;;9.97;4.60;;;7.70;99.90;;;;;;5026728;28;20041;-62
2024/02/06 12:11:03;;;;;;;8.70;4.53;;;7.80;99.90;;;;;;5009151;28;20276;-62
2024/02/06 12:13:33;;;;;;;14.55;5.65;;;7.80;99.90;;;;;;5006858;28;20103;-62
2024/02/06 12:16:07;;;;;;;9.43;4.85;;;7.80;99.90;;;;;;5030250;28;20124;-63
2024/02/06 12:18:40;;;;;;;10.25;5.13;;;7.90;99.90;;;;;;5022791;28;20049;-63
2024/02/06 12:21:22;;;;;;;8.45;4.60;;;7.90;99.90;;;;;;5028547;28;20041;-63
2024/02/06 12:24:20;;;;;;;6.88;4.57;;;7.90;99.90;;;;;;5021523;28;20045;-63
2024/02/06 12:27:05;;;;;;;12.98;5.35;;;8.00;99.90;;;;;;5027371;28;20088;-63
2024/02/06 12:29:41;;;;;;;13.27;5.20;;;8.00;99.90;;;;;;5009407;28;20428;-63
2024/02/06 12:32:08;;;;;;;12.68;6.57;;;8.00;99.90;;;;;;5029650;28;20139;-63
2024/02/06 12:34:35;;;;;;;9.63;4.32;;;8.00;99.90;;;;;;5029265;28;20041;-63
2024/02/06 12:37:07;;;;;;;8.15;4.68;;;8.00;99.90;;;;;;5005554;28;20038;-63
2024/02/06 12:39:35;;;;;;;11.25;4.93;;;8.10;99.90;;;;;;5026900;28;20045;-63
2024/02/06 12:42:07;;;;;;;9.40;6.20;;;8.20;99.90;;;;;;5023858;28;20519;-63
2024/02/06 12:44:39;;;;;;;8.07;5.60;;;8.20;99.90;;;;;;5024027;28;20061;-63
2024/02/06 12:47:11;;;;;;;8.55;4.72;;;8.30;99.90;;;;;;5026845;28;20409;-63
2024/02/06 12:49:42;;;;;;;7.65;4.25;;;8.30;99.90;;;;;;5023309;28;20048;-63
2024/02/06 12:52:18;;;;;;;5.75;3.80;;;8.50;99.90;;;;;;5023727;28;20045;-63
2024/02/06 12:54:51;;;;;;;8.27;5.28;;;8.40;99.90;;;;;;5005443;28;20053;-63
2024/02/06 12:57:19;;;;;;;8.88;4.38;;;8.50;99.90;;;;;;5022122;28;20421;-63
2024/02/06 12:59:51;;;;;;;5.45;3.55;;;8.50;99.90;;;;;;5024079;28;20047;-63
2024/02/06 13:02:23;;;;;;;10.77;3.78;;;8.50;99.90;;;;;;5027375;28;20047;-63
2024/02/06 13:04:54;;;;;;;8.27;3.92;;;8.50;99.90;;;;;;5023360;28;20049;-62
2024/02/06 13:07:25;;;;;;;5.40;3.92;;;8.50;99.90;;;;;;5023037;28;20390;-63
2024/02/06 13:10:10;;;;;;;6.82;4.88;;;8.50;99.90;;;;;;5006745;28;20409;-63
2024/02/06 13:12:42;;;;;;;5.82;3.50;;;8.60;99.90;;;;;;5025189;28;20045;-63
2024/02/06 13:15:17;;;;;;;7.13;4.05;;;8.60;99.90;;;;;;5027021;28;20505;-63